Terminal Aerodrome Forecast
Issued by NWS Austin/San Antonio, TX

Home | Current Version | Previous Version | Text Only | Print | Product List | Glossary On
Versions: 1 2 3 4 5 6 7 8 9 10 11 12 13 14 15
000
FTUS44 KEWX 051739
TAFSAT
TAF
KSAT 051739Z 0518/0624 15015KT P6SM BKN050
     FM052000 15014KT P6SM OVC025
      TEMPO 0603/0606 P6SM -TSRA BKN009CB
     FM060600 15011KT P6SM OVC007
     FM061700 16009KT 6SM BR OVC015=

USA.gov is the U.S. government's official web portal to all federal, state and local government web resources and services.